sensor_id;sensor_type;location;lat;lon;timestamp;P1;durP1;ratioP1;P2;durP2;ratioP2
76749;SDS011;66447;35.844;14.468;2023-05-10T00:08:07;15.88;;;8.25;;
76749;SDS011;66447;35.844;14.468;2023-05-10T00:23:09;18.52;;;9.05;;
76749;SDS011;66447;35.844;14.468;2023-05-10T00:38:12;15.98;;;8.52;;
76749;SDS011;66447;35.844;14.468;2023-05-10T00:53:14;17.15;;;8.68;;
76749;SDS011;66447;35.844;14.468;2023-05-10T01:08:15;17.98;;;8.18;;
76749;SDS011;66447;35.844;14.468;2023-05-10T01:23:22;16.58;;;8.63;;
76749;SDS011;66447;35.844;14.468;2023-05-10T01:38:49;13.48;;;8.55;;
76749;SDS011;66447;35.844;14.468;2023-05-10T01:53:54;17.15;;;8.15;;
76749;SDS011;66447;35.844;14.468;2023-05-10T02:09:01;15.55;;;7.90;;
76749;SDS011;66447;35.844;14.468;2023-05-10T02:24:03;15.45;;;6.97;;
76749;SDS011;66447;35.844;14.468;2023-05-10T02:39:06;14.27;;;8.05;;
76749;SDS011;66447;35.844;14.468;2023-05-10T02:54:15;20.75;;;9.40;;
76749;SDS011;66447;35.844;14.468;2023-05-10T03:09:20;12.98;;;8.63;;
76749;SDS011;66447;35.844;14.468;2023-05-10T03:24:22;14.43;;;7.90;;
76749;SDS011;66447;35.844;14.468;2023-05-10T03:39:26;16.00;;;8.38;;
76749;SDS011;66447;35.844;14.468;2023-05-10T03:54:27;16.08;;;9.27;;
76749;SDS011;66447;35.844;14.468;2023-05-10T04:09:28;13.82;;;9.07;;
76749;SDS011;66447;35.844;14.468;2023-05-10T04:24:30;14.70;;;8.55;;
76749;SDS011;66447;35.844;14.468;2023-05-10T04:39:31;17.65;;;9.95;;
76749;SDS011;66447;35.844;14.468;2023-05-10T04:54:32;15.70;;;8.57;;
76749;SDS011;66447;35.844;14.468;2023-05-10T05:09:34;20.35;;;7.20;;
76749;SDS011;66447;35.844;14.468;2023-05-10T05:24:36;12.00;;;6.78;;
76749;SDS011;66447;35.844;14.468;2023-05-10T05:39:38;12.90;;;5.75;;
76749;SDS011;66447;35.844;14.468;2023-05-10T05:54:39;15.60;;;6.38;;
76749;SDS011;66447;35.844;14.468;2023-05-10T06:09:41;21.70;;;7.05;;
76749;SDS011;66447;35.844;14.468;2023-05-10T06:24:42;13.73;;;6.07;;
76749;SDS011;66447;35.844;14.468;2023-05-10T06:39:44;13.95;;;5.80;;
76749;SDS011;66447;35.844;14.468;2023-05-10T06:54:45;12.18;;;5.60;;
76749;SDS011;66447;35.844;14.468;2023-05-10T07:09:47;9.65;;;5.25;;
76749;SDS011;66447;35.844;14.468;2023-05-10T07:24:49;13.13;;;5.93;;
76749;SDS011;66447;35.844;14.468;2023-05-10T07:39:51;9.95;;;5.43;;
76749;SDS011;66447;35.844;14.468;2023-05-10T07:54:52;11.57;;;6.07;;
76749;SDS011;66447;35.844;14.468;2023-05-10T08:09:54;10.05;;;6.32;;
76749;SDS011;66447;35.844;14.468;2023-05-10T08:24:56;9.23;;;5.32;;
76749;SDS011;66447;35.844;14.468;2023-05-10T08:39:57;11.77;;;5.57;;
76749;SDS011;66447;35.844;14.468;2023-05-10T08:54:59;13.27;;;6.03;;
76749;SDS011;66447;35.844;14.468;2023-05-10T09:10:01;13.00;;;6.43;;
76749;SDS011;66447;35.844;14.468;2023-05-10T09:25:11;7.13;;;4.70;;
76749;SDS011;66447;35.844;14.468;2023-05-10T09:40:15;13.03;;;6.63;;
76749;SDS011;66447;35.844;14.468;2023-05-10T09:55:19;8.60;;;5.65;;
76749;SDS011;66447;35.844;14.468;2023-05-10T10:10:24;13.95;;;6.60;;
76749;SDS011;66447;35.844;14.468;2023-05-10T10:25:26;9.35;;;4.80;;
76749;SDS011;66447;35.844;14.468;2023-05-10T10:40:28;10.85;;;4.63;;
76749;SDS011;66447;35.844;14.468;2023-05-10T10:55:33;9.30;;;4.67;;
76749;SDS011;66447;35.844;14.468;2023-05-10T11:10:34;11.55;;;4.78;;
76749;SDS011;66447;35.844;14.468;2023-05-10T11:25:40;8.70;;;4.90;;
76749;SDS011;66447;35.844;14.468;2023-05-10T11:40:45;10.17;;;6.03;;
76749;SDS011;66447;35.844;14.468;2023-05-10T11:55:47;14.93;;;7.20;;
76749;SDS011;66447;35.844;14.468;2023-05-10T12:10:48;17.02;;;6.75;;
76749;SDS011;66447;35.844;14.468;2023-05-10T12:25:50;10.60;;;4.63;;
76749;SDS011;66447;35.844;14.468;2023-05-10T12:40:54;33.40;;;6.47;;
76749;SDS011;66447;35.844;14.468;2023-05-10T12:55:58;10.43;;;6.53;;
76749;SDS011;66447;35.844;14.468;2023-05-10T13:11:00;12.15;;;7.03;;
76749;SDS011;66447;35.844;14.468;2023-05-10T13:26:03;18.95;;;9.18;;
76749;SDS011;66447;35.844;14.468;2023-05-10T13:41:04;19.27;;;10.60;;
76749;SDS011;66447;35.844;14.468;2023-05-10T13:56:05;16.65;;;10.07;;
76749;SDS011;66447;35.844;14.468;2023-05-10T14:11:07;14.30;;;8.23;;
76749;SDS011;66447;35.844;14.468;2023-05-10T14:26:09;17.42;;;9.55;;
76749;SDS011;66447;35.844;14.468;2023-05-10T14:41:10;14.18;;;10.00;;
76749;SDS011;66447;35.844;14.468;2023-05-10T14:56:15;11.38;;;7.97;;
76749;SDS011;66447;35.844;14.468;2023-05-10T15:11:16;11.82;;;7.55;;
76749;SDS011;66447;35.844;14.468;2023-05-10T15:26:17;11.35;;;7.22;;
76749;SDS011;66447;35.844;14.468;2023-05-10T15:41:19;9.75;;;7.35;;
76749;SDS011;66447;35.844;14.468;2023-05-10T15:56:21;10.95;;;6.38;;
76749;SDS011;66447;35.844;14.468;2023-05-10T16:11:22;6.75;;;4.97;;
76749;SDS011;66447;35.844;14.468;2023-05-10T16:26:23;6.93;;;5.15;;
76749;SDS011;66447;35.844;14.468;2023-05-10T16:41:25;11.43;;;6.22;;
76749;SDS011;66447;35.844;14.468;2023-05-10T16:56:27;9.57;;;6.32;;
76749;SDS011;66447;35.844;14.468;2023-05-10T17:11:29;9.25;;;5.22;;
76749;SDS011;66447;35.844;14.468;2023-05-10T17:26:30;7.07;;;5.88;;
76749;SDS011;66447;35.844;14.468;2023-05-10T17:41:33;8.50;;;5.55;;
76749;SDS011;66447;35.844;14.468;2023-05-10T17:56:35;9.02;;;5.38;;
76749;SDS011;66447;35.844;14.468;2023-05-10T18:11:37;10.10;;;5.75;;
76749;SDS011;66447;35.844;14.468;2023-05-10T18:26:39;8.60;;;6.18;;
76749;SDS011;66447;35.844;14.468;2023-05-10T18:41:40;22.55;;;17.92;;
76749;SDS011;66447;35.844;14.468;2023-05-10T18:56:42;14.02;;;11.00;;
76749;SDS011;66447;35.844;14.468;2023-05-10T19:11:44;20.17;;;12.07;;
76749;SDS011;66447;35.844;14.468;2023-05-10T19:26:45;15.38;;;12.05;;
76749;SDS011;66447;35.844;14.468;2023-05-10T19:41:47;18.42;;;12.63;;
76749;SDS011;66447;35.844;14.468;2023-05-10T19:56:48;23.80;;;16.00;;
76749;SDS011;66447;35.844;14.468;2023-05-10T20:11:50;26.77;;;17.60;;
76749;SDS011;66447;35.844;14.468;2023-05-10T20:26:52;23.92;;;16.80;;
76749;SDS011;66447;35.844;14.468;2023-05-10T20:41:53;31.88;;;19.85;;
76749;SDS011;66447;35.844;14.468;2023-05-10T20:56:55;27.33;;;20.85;;
76749;SDS011;66447;35.844;14.468;2023-05-10T21:11:56;28.65;;;19.00;;
76749;SDS011;66447;35.844;14.468;2023-05-10T21:26:58;29.42;;;17.02;;
76749;SDS011;66447;35.844;14.468;2023-05-10T21:41:59;30.10;;;18.08;;
76749;SDS011;66447;35.844;14.468;2023-05-10T21:57:00;30.10;;;17.77;;
76749;SDS011;66447;35.844;14.468;2023-05-10T22:12:02;29.27;;;17.35;;
76749;SDS011;66447;35.844;14.468;2023-05-10T22:27:03;32.13;;;18.45;;
76749;SDS011;66447;35.844;14.468;2023-05-10T22:42:05;31.25;;;19.25;;
76749;SDS011;66447;35.844;14.468;2023-05-10T22:57:07;28.77;;;16.38;;
76749;SDS011;66447;35.844;14.468;2023-05-10T23:12:08;28.52;;;20.02;;
76749;SDS011;66447;35.844;14.468;2023-05-10T23:27:10;90.07;;;49.85;;
76749;SDS011;66447;35.844;14.468;2023-05-10T23:42:11;36.35;;;21.33;;
76749;SDS011;66447;35.844;14.468;2023-05-10T23:57:13;38.42;;;21.35;;
